Time;durP1;ratioP1;P1;durP2;ratioP2;P2;SDS_P1;SDS_P2;PMS_P1;PMS_P2;Temp;Humidity;BMP_temperature;BMP_pressure;BME280_temperature;BME280_humidity;BME280_pressure;Samples;Min_cycle;Max_cycle;Signal;HPM_P1;HPM_P2
2021/09/30 00:01:24;0.00;0.00;0.62;0.00;0.00;0.62;1.67;0.87;;;27.60;32.20;;;;;;2250204;61;20357;-60
2021/09/30 00:04:08;0.00;0.00;0.62;0.00;0.00;0.62;1.67;1.20;;;27.60;32.20;;;;;;2250082;61;20797;-60
2021/09/30 00:06:53;0.00;0.00;0.62;0.00;0.00;0.62;1.80;0.90;;;27.60;32.10;;;;;;2250007;61;20376;-61
2021/09/30 00:09:43;0.00;0.00;0.62;0.00;0.00;0.62;1.77;0.90;;;27.60;32.00;;;;;;2249810;61;20369;-60
2021/09/30 00:12:32;0.00;0.00;0.62;0.00;0.00;0.62;2.20;1.17;;;27.60;31.80;;;;;;2249691;61;20579;-60
2021/09/30 00:15:28;0.00;0.00;0.62;0.00;0.00;0.62;2.00;1.30;;;27.50;31.70;;;;;;2249892;61;20483;-61
2021/09/30 00:40:10;0.00;0.00;0.62;0.00;0.00;0.62;3.07;1.40;;;26.90;29.60;;;;;;2249599;61;20447;-58
2021/09/30 00:45:53;0.00;0.00;0.62;0.00;0.00;0.62;1.90;1.10;;;26.70;29.40;;;;;;2249793;61;20460;-60
2021/09/30 00:52:07;0.00;0.00;0.62;0.00;0.00;0.62;1.90;0.93;;;26.50;29.50;;;;;;2249653;61;20383;-59
2021/09/30 01:24:27;0.00;0.00;0.62;0.00;0.00;0.62;4.03;1.93;;;25.80;29.70;;;;;;2251622;61;20367;-60
2021/09/30 01:33:44;0.00;0.00;0.62;0.00;0.00;0.62;4.30;1.60;;;25.70;29.70;;;;;;2253366;61;20399;-57
2021/09/30 02:31:28;0.00;0.00;0.62;0.00;0.00;0.62;2.30;1.60;;;25.00;29.70;;;;;;2251726;61;20668;-56
2021/09/30 02:59:24;0.00;0.00;0.62;0.00;0.00;0.62;4.63;1.60;;;24.60;29.60;;;;;;2248769;61;20372;-60
2021/09/30 03:02:10;0.00;0.00;0.62;0.00;0.00;0.62;3.57;1.03;;;24.60;29.70;;;;;;2248917;61;20368;-59
2021/09/30 03:04:56;0.00;0.00;0.62;0.00;0.00;0.62;2.87;1.20;;;24.60;29.80;;;;;;2249358;61;20612;-57
2021/09/30 03:07:41;0.00;0.00;0.62;0.00;0.00;0.62;2.83;1.40;;;24.60;29.80;;;;;;2249083;61;20356;-59
2021/09/30 03:10:26;0.00;0.00;0.62;0.00;0.00;0.62;2.17;1.27;;;24.60;29.80;;;;;;2249266;61;20361;-59
2021/09/30 03:13:11;0.00;0.00;0.62;0.00;0.00;0.62;4.77;1.57;;;24.50;29.70;;;;;;2251674;61;20447;-59
2021/09/30 03:16:03;0.00;0.00;0.62;0.00;0.00;0.62;2.43;1.10;;;24.50;29.60;;;;;;2248882;61;20400;-57
2021/09/30 03:18:55;0.00;0.00;0.62;0.00;0.00;0.62;3.17;1.40;;;24.50;29.70;;;;;;2251354;61;20373;-58
2021/09/30 03:24:47;0.00;0.00;0.62;0.00;0.00;0.62;2.33;1.37;;;24.40;29.70;;;;;;2248654;61;20391;-59
2021/09/30 03:27:32;0.00;0.00;0.62;0.00;0.00;0.62;1.90;1.13;;;24.40;29.70;;;;;;2248988;61;20705;-60
2021/09/30 03:30:17;0.00;0.00;0.62;0.00;0.00;0.62;2.43;1.30;;;24.40;30.20;;;;;;2249340;61;20400;-57
2021/09/30 03:33:06;0.00;0.00;0.62;0.00;0.00;0.62;4.03;1.27;;;24.40;29.70;;;;;;2248314;61;20384;-58
2021/09/30 03:35:54;0.00;0.00;0.62;0.00;0.00;0.62;2.33;1.63;;;24.30;29.60;;;;;;2249245;61;20368;-58
2021/09/30 03:38:38;0.00;0.00;0.62;0.00;0.00;0.62;3.70;1.40;;;24.30;29.60;;;;;;2249695;61;20488;-58
2021/09/30 03:41:23;0.00;0.00;0.62;0.00;0.00;0.62;2.03;1.17;;;24.30;29.60;;;;;;2248901;61;20408;-60
2021/09/30 03:44:07;0.00;0.00;0.62;0.00;0.00;0.62;2.87;1.27;;;24.30;29.60;;;;;;2248542;61;20384;-59
2021/09/30 03:46:53;0.00;0.00;0.62;0.00;0.00;0.62;2.23;1.37;;;24.20;29.50;;;;;;2248811;61;20364;-60
2021/09/30 03:50:05;0.00;0.00;0.62;0.00;0.00;0.62;1.73;1.07;;;24.20;29.50;;;;;;2249218;61;20380;-56
2021/09/30 03:53:08;0.00;0.00;0.62;0.00;0.00;0.62;2.93;1.17;;;24.20;29.60;;;;;;2248742;61;20461;-59
2021/09/30 03:56:32;0.00;0.00;0.62;0.00;0.00;0.62;2.53;1.20;;;24.20;29.50;;;;;;2251452;61;20423;-59
2021/09/30 04:02:31;0.00;0.00;0.62;0.00;0.00;0.62;3.07;1.67;;;24.10;29.50;;;;;;2252484;61;20379;-59
2021/09/30 04:05:16;0.00;0.00;0.62;0.00;0.00;0.62;2.00;1.37;;;24.10;29.50;;;;;;2252833;61;20387;-56
2021/09/30 04:08:03;0.00;0.00;0.62;0.00;0.00;0.62;2.67;1.20;;;24.10;29.50;;;;;;2252956;61;20700;-59
2021/09/30 04:10:47;0.00;0.00;0.62;0.00;0.00;0.62;3.60;1.47;;;24.10;29.50;;;;;;2252574;61;20418;-58
2021/09/30 04:13:32;0.00;0.00;0.62;0.00;0.00;0.62;5.97;1.77;;;24.10;29.50;;;;;;2255260;61;20352;-59
2021/09/30 04:16:17;0.00;0.00;0.62;0.00;0.00;0.62;3.17;1.60;;;24.10;29.50;;;;;;2255367;61;20419;-61
2021/09/30 04:19:02;0.00;0.00;0.62;0.00;0.00;0.62;2.23;1.30;;;24.00;29.40;;;;;;2255823;61;20359;-58
2021/09/30 04:21:51;0.00;0.00;0.62;0.00;0.00;0.62;4.37;1.73;;;24.00;29.40;;;;;;2256106;61;20403;-61
2021/09/30 04:24:38;0.00;0.00;0.62;0.00;0.00;0.62;3.60;1.30;;;24.00;29.40;;;;;;2255606;61;20407;-59
2021/09/30 04:27:25;0.00;0.00;0.62;0.00;0.00;0.62;2.60;1.17;;;24.00;29.40;;;;;;2256296;61;20356;-59
2021/09/30 04:30:12;0.00;0.00;0.62;0.00;0.00;0.62;2.87;1.60;;;24.00;29.40;;;;;;2256240;61;20367;-60
2021/09/30 04:33:14;0.00;0.00;0.62;0.00;0.00;0.62;2.50;1.50;;;24.00;29.50;;;;;;2255815;61;20362;-57
2021/09/30 04:35:59;0.00;0.00;0.62;0.00;0.00;0.62;2.43;1.20;;;23.90;29.40;;;;;;2256017;61;20716;-57
2021/09/30 04:38:45;0.00;0.00;0.62;0.00;0.00;0.62;2.27;1.13;;;23.90;29.40;;;;;;2256051;61;20414;-59
2021/09/30 04:41:32;0.00;0.00;0.62;0.00;0.00;0.62;5.00;1.43;;;23.90;29.40;;;;;;2256183;61;20504;-55
2021/09/30 04:44:18;0.00;0.00;0.62;0.00;0.00;0.62;3.70;1.80;;;23.90;29.30;;;;;;2256133;61;20424;-58
2021/09/30 04:47:04;0.00;0.00;0.62;0.00;0.00;0.62;2.10;1.20;;;23.90;29.30;;;;;;2255663;61;20363;-58
2021/09/30 04:50:18;0.00;0.00;0.62;0.00;0.00;0.62;1.90;1.40;;;23.80;29.30;;;;;;2253212;61;20383;-59
2021/09/30 04:53:04;0.00;0.00;0.62;0.00;0.00;0.62;4.20;1.47;;;23.80;29.40;;;;;;2255811;61;20375;-58
2021/09/30 04:55:57;0.00;0.00;0.62;0.00;0.00;0.62;2.80;1.73;;;23.80;29.40;;;;;;2252719;61;20772;-59
2021/09/30 04:58:43;0.00;0.00;0.62;0.00;0.00;0.62;2.23;1.27;;;23.80;29.40;;;;;;2249289;61;20469;-60
2021/09/30 05:01:27;0.00;0.00;0.62;0.00;0.00;0.62;2.20;1.20;;;23.80;29.50;;;;;;2249164;61;20365;-60
2021/09/30 05:04:12;0.00;0.00;0.62;0.00;0.00;0.62;1.70;1.10;;;23.80;29.50;;;;;;2249400;61;20404;-60
2021/09/30 05:06:59;0.00;0.00;0.62;0.00;0.00;0.62;2.40;1.40;;;23.80;29.60;;;;;;2249409;61;20692;-60
2021/09/30 05:09:48;0.00;0.00;0.62;0.00;0.00;0.62;1.50;1.10;;;23.80;29.60;;;;;;2248755;61;20361;-59
2021/09/30 05:12:34;0.00;0.00;0.62;0.00;0.00;0.62;1.70;1.00;;;23.70;29.50;;;;;;2251902;61;20737;-60
2021/09/30 05:15:20;0.00;0.00;0.62;0.00;0.00;0.62;2.73;1.47;;;23.70;29.50;;;;;;2249046;61;20388;-60
2021/09/30 05:18:06;0.00;0.00;0.62;0.00;0.00;0.62;2.30;1.43;;;23.70;29.60;;;;;;2249345;61;20401;-59
2021/09/30 05:20:50;0.00;0.00;0.62;0.00;0.00;0.62;2.13;1.13;;;23.70;29.60;;;;;;2249209;61;20592;-59
2021/09/30 05:23:35;0.00;0.00;0.62;0.00;0.00;0.62;2.70;1.40;;;23.70;29.60;;;;;;2248987;61;20361;-60
2021/09/30 05:26:19;0.00;0.00;0.62;0.00;0.00;0.62;2.90;1.40;;;23.70;29.60;;;;;;2252256;61;20364;-58
2021/09/30 05:29:08;0.00;0.00;0.62;0.00;0.00;0.62;1.63;1.13;;;23.70;29.60;;;;;;2249227;61;20365;-58
2021/09/30 05:31:54;0.00;0.00;0.62;0.00;0.00;0.62;4.63;1.30;;;23.80;29.70;;;;;;2251509;61;20725;-58
2021/09/30 05:35:09;0.00;0.00;0.62;0.00;0.00;0.62;4.53;1.40;;;23.70;29.50;;;;;;2249307;61;20408;-60
2021/09/30 05:38:04;0.00;0.00;0.62;0.00;0.00;0.62;1.53;1.20;;;23.70;29.40;;;;;;2249092;61;20392;-59
2021/09/30 05:40:50;0.00;0.00;0.62;0.00;0.00;0.62;2.13;1.30;;;23.70;29.40;;;;;;2249382;61;20534;-60
2021/09/30 05:43:37;0.00;0.00;0.62;0.00;0.00;0.62;2.73;1.50;;;23.60;29.50;;;;;;2249541;61;20355;-59
2021/09/30 05:46:36;0.00;0.00;0.62;0.00;0.00;0.62;2.50;1.27;;;23.60;29.50;;;;;;2248624;61;20377;-58
2021/09/30 05:49:23;0.00;0.00;0.62;0.00;0.00;0.62;4.23;1.70;;;23.60;29.60;;;;;;2249047;61;20837;-58
2021/09/30 05:52:16;0.00;0.00;0.62;0.00;0.00;0.62;2.87;1.80;;;23.60;29.60;;;;;;2251216;61;20596;-59
2021/09/30 05:55:10;0.00;0.00;0.62;0.00;0.00;0.62;2.53;1.73;;;23.60;29.60;;;;;;2250933;61;20435;-59
2021/09/30 05:57:54;0.00;0.00;0.62;0.00;0.00;0.62;7.63;1.73;;;23.60;29.60;;;;;;2255749;61;20620;-56
2021/09/30 06:00:52;0.00;0.00;0.62;0.00;0.00;0.62;2.20;1.17;;;23.60;29.60;;;;;;2255218;61;20359;-58
2021/09/30 06:12:47;0.00;0.00;0.62;0.00;0.00;0.62;3.67;1.33;;;23.60;29.80;;;;;;2253329;61;20372;-56
2021/09/30 06:15:34;0.00;0.00;0.62;0.00;0.00;0.62;2.50;1.60;;;23.60;29.80;;;;;;2252512;61;20476;-60
2021/09/30 06:18:19;0.00;0.00;0.62;0.00;0.00;0.62;4.50;1.80;;;23.60;29.80;;;;;;2252001;61;20383;-56
2021/09/30 06:21:09;0.00;0.00;0.62;0.00;0.00;0.62;2.80;1.40;;;23.60;29.80;;;;;;2254675;61;20364;-59
2021/09/30 06:23:54;0.00;0.00;0.62;0.00;0.00;0.62;2.47;1.60;;;23.60;29.80;;;;;;2252647;61;20395;-58
2021/09/30 06:26:38;0.00;0.00;0.62;0.00;0.00;0.62;3.20;1.60;;;23.60;29.80;;;;;;2255907;61;20359;-60
2021/09/30 06:29:31;0.00;0.00;0.62;0.00;0.00;0.62;2.97;1.33;;;23.60;29.80;;;;;;2255488;61;20432;-60
2021/09/30 06:32:20;0.00;0.00;0.62;0.00;0.00;0.62;2.00;1.50;;;23.70;29.80;;;;;;2252768;61;20368;-58
2021/09/30 06:35:39;0.00;0.00;0.62;0.00;0.00;0.62;2.73;1.67;;;23.60;29.70;;;;;;2253357;61;20632;-58
2021/09/30 06:38:25;0.00;0.00;0.62;0.00;0.00;0.62;4.80;2.03;;;23.70;29.60;;;;;;2252733;61;20600;-58
2021/09/30 06:41:09;0.00;0.00;0.62;0.00;0.00;0.62;3.33;1.30;;;23.60;29.50;;;;;;2255800;61;20396;-60
2021/09/30 06:43:55;0.00;0.00;0.62;0.00;0.00;0.62;3.70;1.93;;;23.60;29.50;;;;;;2255318;61;20427;-58
2021/09/30 06:47:18;0.00;0.00;0.62;0.00;0.00;0.62;5.03;2.60;;;23.60;29.50;;;;;;2248726;61;20400;-60
2021/09/30 06:50:07;0.00;0.00;0.62;0.00;0.00;0.62;3.43;1.60;;;23.60;29.50;;;;;;2245838;61;20636;-58
2021/09/30 06:53:11;0.00;0.00;0.62;0.00;0.00;0.62;3.57;2.10;;;23.60;29.50;;;;;;2252978;61;20439;-59
2021/09/30 06:56:20;0.00;0.00;0.62;0.00;0.00;0.62;6.37;2.30;;;23.60;29.50;;;;;;2255553;61;20399;-59
2021/09/30 06:59:37;0.00;0.00;0.62;0.00;0.00;0.62;3.33;1.73;;;23.60;29.50;;;;;;2251486;61;20411;-60
2021/09/30 07:02:42;0.00;0.00;0.62;0.00;0.00;0.62;2.20;1.50;;;23.60;29.60;;;;;;2253375;61;20387;-60
2021/09/30 07:05:59;0.00;0.00;0.62;0.00;0.00;0.62;3.20;2.03;;;23.60;29.60;;;;;;2253434;61;20364;-58
2021/09/30 07:08:45;0.00;0.00;0.62;0.00;0.00;0.62;4.33;2.00;;;23.50;29.40;;;;;;2255775;61;20367;-55
2021/09/30 07:11:31;0.00;0.00;0.62;0.00;0.00;0.62;3.70;2.20;;;23.50;29.30;;;;;;2255663;61;20660;-59
2021/09/30 07:14:18;0.00;0.00;0.62;0.00;0.00;0.62;6.50;1.80;;;23.50;29.20;;;;;;2251463;61;20401;-59
2021/09/30 07:17:03;0.00;0.00;0.62;0.00;0.00;0.62;2.83;1.70;;;23.40;29.20;;;;;;2249305;61;20384;-56
2021/09/30 07:19:47;0.00;0.00;0.62;0.00;0.00;0.62;3.30;2.07;;;23.40;29.40;;;;;;2249371;61;20716;-55
2021/09/30 07:22:32;0.00;0.00;0.62;0.00;0.00;0.62;3.13;1.90;;;23.40;29.50;;;;;;2248978;61;20441;-59
2021/09/30 07:25:16;0.00;0.00;0.62;0.00;0.00;0.62;3.20;1.77;;;23.40;29.50;;;;;;2249473;61;20784;-57
2021/09/30 07:28:03;0.00;0.00;0.62;0.00;0.00;0.62;2.90;1.80;;;23.40;29.60;;;;;;2249488;61;20377;-57
2021/09/30 07:30:48;0.00;0.00;0.62;0.00;0.00;0.62;4.30;2.40;;;23.40;29.70;;;;;;2249361;61;20476;-60
2021/09/30 07:33:34;0.00;0.00;0.62;0.00;0.00;0.62;4.67;2.40;;;23.40;29.70;;;;;;2249427;61;20404;-58
2021/09/30 07:36:20;0.00;0.00;0.62;0.00;0.00;0.62;2.90;2.40;;;23.40;29.70;;;;;;2251114;61;20749;-59
2021/09/30 07:39:05;0.00;0.00;0.62;0.00;0.00;0.62;5.13;2.27;;;23.40;29.70;;;;;;2251281;61;20639;-57
2021/09/30 07:41:50;0.00;0.00;0.62;0.00;0.00;0.62;3.77;2.83;;;23.40;29.60;;;;;;2251543;61;20432;-56
2021/09/30 07:44:37;0.00;0.00;0.62;0.00;0.00;0.62;4.00;2.53;;;23.40;29.40;;;;;;2250920;61;20872;-59
2021/09/30 07:47:21;0.00;0.00;0.62;0.00;0.00;0.62;3.00;1.90;;;23.40;29.40;;;;;;2251731;61;20357;-58
2021/09/30 07:50:08;0.00;0.00;0.62;0.00;0.00;0.62;2.47;2.03;;;23.40;29.50;;;;;;2250456;61;20434;-58
2021/09/30 07:52:52;0.00;0.00;0.62;0.00;0.00;0.62;5.57;2.47;;;23.40;29.70;;;;;;2248903;61;20369;-61
2021/09/30 07:55:37;0.00;0.00;0.62;0.00;0.00;0.62;3.93;2.30;;;23.40;29.80;;;;;;2249752;61;20715;-60
2021/09/30 07:58:22;0.00;0.00;0.62;0.00;0.00;0.62;3.17;1.83;;;23.40;29.90;;;;;;2249693;61;20396;-60
2021/09/30 08:01:08;0.00;0.00;0.62;0.00;0.00;0.62;5.13;2.00;;;23.50;30.00;;;;;;2249994;61;20395;-58
2021/09/30 08:03:54;0.00;0.00;0.62;0.00;0.00;0.62;3.37;1.70;;;23.50;30.00;;;;;;2250007;61;20438;-56
2021/09/30 08:06:40;0.00;0.00;0.62;0.00;0.00;0.62;2.70;1.80;;;23.60;30.00;;;;;;2249371;61;20396;-59
2021/09/30 08:09:24;0.00;0.00;0.62;0.00;0.00;0.62;2.23;1.40;;;23.60;30.00;;;;;;2250233;61;20360;-54
2021/09/30 08:12:10;0.00;0.00;0.62;0.00;0.00;0.62;3.53;1.80;;;23.70;30.00;;;;;;2249806;61;20467;-54
2021/09/30 08:14:54;0.00;0.00;0.62;0.00;0.00;0.62;3.70;1.83;;;23.80;30.10;;;;;;2252180;61;20492;-53
2021/09/30 08:17:40;0.00;0.00;0.62;0.00;0.00;0.62;2.90;1.53;;;23.80;30.00;;;;;;2254139;61;20419;-59
2021/09/30 08:20:26;0.00;0.00;0.62;0.00;0.00;0.62;2.07;1.53;;;23.90;30.10;;;;;;2253238;61;20368;-56
2021/09/30 08:23:12;0.00;0.00;0.62;0.00;0.00;0.62;2.33;1.50;;;23.90;30.00;;;;;;2253901;61;20755;-55
2021/09/30 08:25:57;0.00;0.00;0.62;0.00;0.00;0.62;2.70;1.90;;;23.90;30.00;;;;;;2253786;61;20375;-57
2021/09/30 08:28:42;0.00;0.00;0.62;0.00;0.00;0.62;3.33;1.37;;;24.00;30.00;;;;;;2253488;61;20627;-57
2021/09/30 08:31:26;0.00;0.00;0.62;0.00;0.00;0.62;2.37;1.50;;;24.10;30.10;;;;;;2254008;61;20364;-54
2021/09/30 08:34:12;0.00;0.00;0.62;0.00;0.00;0.62;2.27;1.60;;;24.10;30.10;;;;;;2253823;61;20624;-56
2021/09/30 08:36:57;0.00;0.00;0.62;0.00;0.00;0.62;1.53;1.10;;;24.10;30.00;;;;;;2253369;61;20387;-55
2021/09/30 08:39:41;0.00;0.00;0.62;0.00;0.00;0.62;1.93;1.40;;;24.20;30.10;;;;;;2254167;61;20363;-56
2021/09/30 08:42:26;0.00;0.00;0.62;0.00;0.00;0.62;2.00;1.40;;;24.20;30.10;;;;;;2253325;61;20384;-56
2021/09/30 08:45:11;0.00;0.00;0.62;0.00;0.00;0.62;2.43;1.70;;;24.30;30.10;;;;;;2253860;61;20430;-56
2021/09/30 08:47:57;0.00;0.00;0.62;0.00;0.00;0.62;2.30;1.50;;;24.30;30.10;;;;;;2253669;61;20355;-57
2021/09/30 08:50:43;0.00;0.00;0.62;0.00;0.00;0.62;3.20;1.70;;;24.40;30.20;;;;;;2253865;61;20380;-59
2021/09/30 08:53:27;0.00;0.00;0.62;0.00;0.00;0.62;2.47;1.67;;;24.40;30.10;;;;;;2253873;61;20480;-54
2021/09/30 08:56:13;0.00;0.00;0.62;0.00;0.00;0.62;2.43;1.30;;;24.50;30.20;;;;;;2255941;61;20407;-55
2021/09/30 08:59:11;0.00;0.00;0.62;0.00;0.00;0.62;1.80;1.40;;;24.50;30.20;;;;;;2253491;61;20399;-56
2021/09/30 09:02:08;0.00;0.00;0.62;0.00;0.00;0.62;2.17;1.40;;;24.60;30.20;;;;;;2253828;61;20364;-58
2021/09/30 09:04:55;0.00;0.00;0.62;0.00;0.00;0.62;1.93;1.10;;;24.60;30.20;;;;;;2252756;61;20783;-59
2021/09/30 09:07:53;0.00;0.00;0.62;0.00;0.00;0.62;1.40;1.00;;;24.60;30.20;;;;;;2253906;61;20386;-56
2021/09/30 09:10:41;0.00;0.00;0.62;0.00;0.00;0.62;2.40;1.13;;;24.70;30.30;;;;;;2253657;61;20595;-58
2021/09/30 09:13:27;0.00;0.00;0.62;0.00;0.00;0.62;1.50;1.03;;;24.70;30.30;;;;;;2252827;61;20375;-53
2021/09/30 09:16:11;0.00;0.00;0.62;0.00;0.00;0.62;1.50;1.00;;;24.70;30.20;;;;;;2249772;61;20383;-56
2021/09/30 09:18:55;0.00;0.00;0.62;0.00;0.00;0.62;1.80;1.10;;;24.80;30.30;;;;;;2249697;61;20360;-54
2021/09/30 09:21:40;0.00;0.00;0.62;0.00;0.00;0.62;2.00;1.33;;;24.80;30.30;;;;;;2249711;61;20597;-60
2021/09/30 09:24:26;0.00;0.00;0.62;0.00;0.00;0.62;2.93;1.47;;;24.90;30.40;;;;;;2249618;61;20389;-55
2021/09/30 09:27:11;0.00;0.00;0.62;0.00;0.00;0.62;3.33;1.40;;;24.90;30.40;;;;;;2249482;61;20428;-57
2021/09/30 09:29:55;0.00;0.00;0.62;0.00;0.00;0.62;2.73;1.10;;;24.90;30.30;;;;;;2249834;61;20404;-57
2021/09/30 09:32:59;0.00;0.00;0.62;0.00;0.00;0.62;1.70;1.10;;;25.00;30.40;;;;;;2249359;61;20365;-57
2021/09/30 09:35:50;0.00;0.00;0.62;0.00;0.00;0.62;1.43;1.00;;;25.00;30.40;;;;;;2249295;61;20369;-57
2021/09/30 09:38:51;0.00;0.00;0.62;0.00;0.00;0.62;2.20;1.50;;;25.10;30.40;;;;;;2249730;61;20385;-57
2021/09/30 09:41:37;0.00;0.00;0.62;0.00;0.00;0.62;1.70;1.00;;;25.10;31.00;;;;;;2249167;61;20401;-57
2021/09/30 09:44:22;0.00;0.00;0.62;0.00;0.00;0.62;1.30;0.90;;;25.10;30.30;;;;;;2249522;61;20815;-58
2021/09/30 09:47:20;0.00;0.00;0.62;0.00;0.00;0.62;1.40;1.00;;;25.20;30.40;;;;;;2249516;61;20424;-59
2021/09/30 09:50:15;0.00;0.00;0.62;0.00;0.00;0.62;1.57;1.23;;;25.20;30.30;;;;;;2249417;61;20368;-59
2021/09/30 09:53:02;0.00;0.00;0.62;0.00;0.00;0.62;2.13;1.00;;;25.30;30.30;;;;;;2249470;61;20401;-58
2021/09/30 09:55:46;0.00;0.00;0.62;0.00;0.00;0.62;1.87;1.00;;;25.30;30.30;;;;;;2249203;61;20501;-57
2021/09/30 09:58:42;0.00;0.00;0.62;0.00;0.00;0.62;1.80;1.20;;;25.40;30.30;;;;;;2249308;61;20404;-60
2021/09/30 10:01:38;0.00;0.00;0.62;0.00;0.00;0.62;1.40;1.00;;;25.40;30.30;;;;;;2249682;61;20448;-58
2021/09/30 10:04:25;0.00;0.00;0.62;0.00;0.00;0.62;2.00;1.17;;;25.40;30.30;;;;;;2249383;61;20381;-56
2021/09/30 10:07:09;0.00;0.00;0.62;0.00;0.00;0.62;1.80;1.20;;;25.50;30.40;;;;;;2249560;61;20364;-57
2021/09/30 10:09:54;0.00;0.00;0.62;0.00;0.00;0.62;1.60;0.90;;;25.50;30.30;;;;;;2249679;61;20364;-60
2021/09/30 10:12:39;0.00;0.00;0.62;0.00;0.00;0.62;1.60;0.80;;;25.50;30.40;;;;;;2248898;61;20381;-58
2021/09/30 10:15:25;0.00;0.00;0.62;0.00;0.00;0.62;1.50;1.00;;;25.60;30.40;;;;;;2253199;61;20702;-59
2021/09/30 10:18:11;0.00;0.00;0.62;0.00;0.00;0.62;1.60;1.00;;;25.60;30.40;;;;;;2253555;61;20391;-58
2021/09/30 10:20:57;0.00;0.00;0.62;0.00;0.00;0.62;1.50;0.90;;;25.70;30.50;;;;;;2253415;61;20399;-57
2021/09/30 10:23:48;0.00;0.00;0.62;0.00;0.00;0.62;1.40;1.00;;;25.70;30.50;;;;;;2253634;61;20681;-57
2021/09/30 10:26:40;0.00;0.00;0.62;0.00;0.00;0.62;1.50;0.90;;;25.70;30.50;;;;;;2253455;61;20423;-57
2021/09/30 10:29:36;0.00;0.00;0.62;0.00;0.00;0.62;1.70;1.00;;;25.80;30.50;;;;;;2253712;61;20356;-59
2021/09/30 10:32:24;0.00;0.00;0.62;0.00;0.00;0.62;1.50;0.90;;;25.80;30.50;;;;;;2255871;61;20360;-59
2021/09/30 10:35:09;0.00;0.00;0.62;0.00;0.00;0.62;1.70;1.13;;;25.90;30.60;;;;;;2252944;61;20423;-59
2021/09/30 10:38:15;0.00;0.00;0.62;0.00;0.00;0.62;1.73;1.00;;;25.90;30.60;;;;;;2253817;61;20775;-54
2021/09/30 10:41:09;0.00;0.00;0.62;0.00;0.00;0.62;3.30;1.30;;;26.00;30.70;;;;;;2253139;61;20359;-57
2021/09/30 10:44:12;0.00;0.00;0.62;0.00;0.00;0.62;1.40;0.80;;;26.00;30.70;;;;;;2253653;61;20383;-59
2021/09/30 10:46:59;0.00;0.00;0.62;0.00;0.00;0.62;1.30;0.80;;;26.00;30.60;;;;;;2253543;61;20360;-59
2021/09/30 10:49:54;0.00;0.00;0.62;0.00;0.00;0.62;1.90;1.03;;;26.00;30.50;;;;;;2252974;61;20388;-59
2021/09/30 10:52:52;0.00;0.00;0.62;0.00;0.00;0.62;1.40;0.90;;;26.10;30.60;;;;;;2253427;61;20356;-59
2021/09/30 10:55:36;0.00;0.00;0.62;0.00;0.00;0.62;1.37;0.93;;;26.10;30.60;;;;;;2253012;61;20379;-58
2021/09/30 10:58:24;0.00;0.00;0.62;0.00;0.00;0.62;1.30;0.80;;;26.10;30.50;;;;;;2253470;61;20394;-57
2021/09/30 11:01:13;0.00;0.00;0.62;0.00;0.00;0.62;1.97;1.00;;;26.20;30.60;;;;;;2253314;61;20605;-58
2021/09/30 11:03:58;0.00;0.00;0.62;0.00;0.00;0.62;1.50;0.77;;;26.20;30.60;;;;;;2253174;61;20384;-58
2021/09/30 11:07:12;0.00;0.00;0.62;0.00;0.00;0.62;1.70;0.80;;;26.20;30.50;;;;;;2253587;61;20356;-58
2021/09/30 11:10:19;0.00;0.00;0.62;0.00;0.00;0.62;1.27;0.80;;;26.30;30.50;;;;;;2253386;61;20367;-59
2021/09/30 11:13:23;0.00;0.00;0.62;0.00;0.00;0.62;1.77;1.00;;;26.30;30.40;;;;;;2253265;61;20391;-57
2021/09/30 11:16:11;0.00;0.00;0.62;0.00;0.00;0.62;1.53;0.90;;;26.30;30.40;;;;;;2249280;61;20800;-53
2021/09/30 11:18:57;0.00;0.00;0.62;0.00;0.00;0.62;1.40;0.90;;;26.40;30.40;;;;;;2248999;61;20441;-58
2021/09/30 11:21:49;0.00;0.00;0.62;0.00;0.00;0.62;1.60;0.93;;;26.40;30.40;;;;;;2249461;61;20478;-54
2021/09/30 11:24:47;0.00;0.00;0.62;0.00;0.00;0.62;1.40;0.80;;;26.40;30.30;;;;;;2249168;61;20804;-58
2021/09/30 11:27:33;0.00;0.00;0.62;0.00;0.00;0.62;1.70;0.90;;;26.40;30.30;;;;;;2249635;61;20357;-56
2021/09/30 11:30:24;0.00;0.00;0.62;0.00;0.00;0.62;1.30;0.80;;;26.40;30.20;;;;;;2250334;61;20368;-56
2021/09/30 11:33:09;0.00;0.00;0.62;0.00;0.00;0.62;1.43;0.80;;;26.50;30.30;;;;;;2249762;61;20437;-57
2021/09/30 11:36:00;0.00;0.00;0.62;0.00;0.00;0.62;1.20;0.70;;;26.50;30.30;;;;;;2250135;61;20369;-55
2021/09/30 11:38:46;0.00;0.00;0.62;0.00;0.00;0.62;1.67;0.80;;;26.50;30.30;;;;;;2252327;61;20412;-56
2021/09/30 11:41:33;0.00;0.00;0.62;0.00;0.00;0.62;1.30;0.80;;;26.50;30.20;;;;;;2249581;61;20371;-55
2021/09/30 11:44:20;0.00;0.00;0.62;0.00;0.00;0.62;1.40;0.90;;;26.60;30.30;;;;;;2250117;61;20376;-60
2021/09/30 11:47:04;0.00;0.00;0.62;0.00;0.00;0.62;1.23;0.73;;;26.70;30.30;;;;;;2249970;61;20429;-57
2021/09/30 11:49:49;0.00;0.00;0.62;0.00;0.00;0.62;2.03;1.00;;;26.70;30.40;;;;;;2250059;61;20773;-53
2021/09/30 11:52:34;0.00;0.00;0.62;0.00;0.00;0.62;1.53;0.70;;;26.70;30.20;;;;;;2250103;61;20408;-56
2021/09/30 11:55:19;0.00;0.00;0.62;0.00;0.00;0.62;1.50;0.90;;;26.70;30.30;;;;;;2249863;61;20396;-59
2021/09/30 11:58:04;0.00;0.00;0.62;0.00;0.00;0.62;1.97;0.87;;;26.80;30.20;;;;;;2250143;61;20614;-56
2021/09/30 12:00:49;0.00;0.00;0.62;0.00;0.00;0.62;1.30;0.90;;;26.80;30.20;;;;;;2250130;61;20689;-57
2021/09/30 12:03:43;0.00;0.00;0.62;0.00;0.00;0.62;1.67;0.90;;;26.80;30.20;;;;;;2249452;61;20788;-58
2021/09/30 12:06:39;0.00;0.00;0.62;0.00;0.00;0.62;1.30;0.70;;;26.80;30.10;;;;;;2250167;61;20361;-56
2021/09/30 12:09:23;0.00;0.00;0.62;0.00;0.00;0.62;1.40;0.80;;;26.90;30.10;;;;;;2249821;61;20352;-55
2021/09/30 12:12:10;0.00;0.00;0.62;0.00;0.00;0.62;1.40;0.80;;;27.00;30.20;;;;;;2250030;61;20356;-57
2021/09/30 12:14:57;0.00;0.00;0.62;0.00;0.00;0.62;1.70;0.80;;;27.00;30.10;;;;;;2252703;61;20404;-58
2021/09/30 12:17:42;0.00;0.00;0.62;0.00;0.00;0.62;3.30;0.97;;;27.00;30.10;;;;;;2253811;61;20463;-56
2021/09/30 12:20:28;0.00;0.00;0.62;0.00;0.00;0.62;1.57;0.87;;;27.10;30.10;;;;;;2253887;61;20395;-57
2021/09/30 12:23:15;0.00;0.00;0.62;0.00;0.00;0.62;1.50;0.80;;;27.10;30.10;;;;;;2253901;61;20395;-56
2021/09/30 12:26:01;0.00;0.00;0.62;0.00;0.00;0.62;2.43;0.80;;;27.20;30.10;;;;;;2253505;61;20439;-58
2021/09/30 12:28:47;0.00;0.00;0.62;0.00;0.00;0.62;2.03;1.00;;;27.20;30.10;;;;;;2253995;61;20351;-59
2021/09/30 12:31:33;0.00;0.00;0.62;0.00;0.00;0.62;1.50;0.83;;;27.30;30.10;;;;;;2253900;61;20378;-57
2021/09/30 12:34:21;0.00;0.00;0.62;0.00;0.00;0.62;1.57;1.10;;;27.30;30.00;;;;;;2253998;61;20399;-58
2021/09/30 12:37:06;0.00;0.00;0.62;0.00;0.00;0.62;1.80;0.80;;;27.30;30.00;;;;;;2253906;61;20426;-57
2021/09/30 12:40:02;0.00;0.00;0.62;0.00;0.00;0.62;1.50;0.80;;;27.40;30.00;;;;;;2258724;61;20355;-58
2021/09/30 12:43:02;0.00;0.00;0.62;0.00;0.00;0.62;1.70;0.90;;;27.40;30.00;;;;;;2253814;61;20352;-58
2021/09/30 12:46:00;0.00;0.00;0.62;0.00;0.00;0.62;1.80;0.90;;;27.40;30.00;;;;;;2253914;61;20362;-58
2021/09/30 12:48:54;0.00;0.00;0.62;0.00;0.00;0.62;1.83;0.80;;;27.40;30.00;;;;;;2253553;61;20584;-60
2021/09/30 12:51:39;0.00;0.00;0.62;0.00;0.00;0.62;1.70;0.80;;;27.40;29.90;;;;;;2253837;61;20403;-57
2021/09/30 12:54:27;0.00;0.00;0.62;0.00;0.00;0.62;1.30;0.80;;;27.40;30.00;;;;;;2253493;61;20431;-50
2021/09/30 12:57:12;0.00;0.00;0.62;0.00;0.00;0.62;1.50;0.90;;;27.50;30.00;;;;;;2253950;61;20387;-55
2021/09/30 13:00:12;0.00;0.00;0.62;0.00;0.00;0.62;2.23;0.80;;;27.50;30.00;;;;;;2253775;61;20356;-58
2021/09/30 13:03:12;0.00;0.00;0.62;0.00;0.00;0.62;1.30;0.70;;;27.50;30.00;;;;;;2253456;61;20368;-58
2021/09/30 13:05:57;0.00;0.00;0.62;0.00;0.00;0.62;2.53;0.80;;;27.60;30.00;;;;;;2253897;61;20363;-57
2021/09/30 13:08:43;0.00;0.00;0.62;0.00;0.00;0.62;1.27;0.73;;;27.60;30.00;;;;;;2253414;61;20468;-59
2021/09/30 13:11:31;0.00;0.00;0.62;0.00;0.00;0.62;1.60;0.93;;;27.60;29.90;;;;;;2253725;61;20383;-56
2021/09/30 13:14:23;0.00;0.00;0.62;0.00;0.00;0.62;1.70;0.90;;;27.60;29.90;;;;;;2251700;61;20393;-55
2021/09/30 13:17:14;0.00;0.00;0.62;0.00;0.00;0.62;1.20;0.67;;;27.60;29.90;;;;;;2249646;61;20783;-54
2021/09/30 13:20:06;0.00;0.00;0.62;0.00;0.00;0.62;1.57;0.70;;;27.70;29.90;;;;;;2249877;61;20361;-55
2021/09/30 13:22:50;0.00;0.00;0.62;0.00;0.00;0.62;4.90;0.80;;;27.70;29.90;;;;;;2252005;61;20725;-54
2021/09/30 13:25:35;0.00;0.00;0.62;0.00;0.00;0.62;1.40;0.70;;;27.70;29.90;;;;;;2249319;61;20436;-55
2021/09/30 13:28:20;0.00;0.00;0.62;0.00;0.00;0.62;1.63;0.80;;;27.70;29.90;;;;;;2250169;61;20384;-55
2021/09/30 13:31:04;0.00;0.00;0.62;0.00;0.00;0.62;1.50;0.80;;;27.70;29.90;;;;;;2249348;61;20364;-59
2021/09/30 13:33:49;0.00;0.00;0.62;0.00;0.00;0.62;1.40;0.63;;;27.70;29.90;;;;;;2249561;61;20449;-58
2021/09/30 13:36:35;0.00;0.00;0.62;0.00;0.00;0.62;1.20;0.70;;;27.70;29.90;;;;;;2249495;61;20364;-60
2021/09/30 13:39:20;0.00;0.00;0.62;0.00;0.00;0.62;2.23;0.80;;;27.70;30.00;;;;;;2249550;61;20815;-60
2021/09/30 13:42:07;0.00;0.00;0.62;0.00;0.00;0.62;1.70;0.83;;;27.70;30.00;;;;;;2249900;61;20401;-60
2021/09/30 13:44:52;0.00;0.00;0.62;0.00;0.00;0.62;1.60;0.80;;;27.80;30.00;;;;;;2249781;61;20485;-60
2021/09/30 13:47:37;0.00;0.00;0.62;0.00;0.00;0.62;1.40;0.70;;;27.80;30.00;;;;;;2249231;61;20369;-60